Decoded Metar for CYBW (CALGARY/SPRINGBA in AB, CANADA) (IATA:YBW) | Meteo·Mobile Aviation Weather
aviador You're here:

CYBW Decoded Metar

CALGARY/SPRINGBA in AB, CANADA
Report Time2018-09-24 07:47:00
UTC Time2018-09-24 07:53:33
Flight Rules mvfr MVFR
WindCalm
Visibility4828 m
Phenomena:Light Rain
Mist
Clouds:Scattered 004 Hf
Broken 010 Hf
Overcast 025 Hf
Ceiling1,000 ft
Temp04°C (ISA -3)
Dew Point04°C (100% RH)
AAT2.7°C
QNH1015 hPa
Density Alt3,612 ft
Elevation3,937 ft
Report Wrong Elevation
Raw Report
SPECI CYBW 240747Z AUTO 00000KT 3SM -RA BR SCT004 BKN010 OVC025 04/04 A2996 RMK SLP181=

Extra information for CYBW:More info

Metar Taf Metar & Taf Last 4 Metars F.Rules Stats Wind Profile Meteogram Temp Stats Airport Information Weather charts Add Link Nearby VenuesMetar ALERT Operation Metar Decoded Social comments